createdAt,value
2023-05-14T00:01:08.537Z,10.23
2023-05-14T00:03:56.819Z,10.17
2023-05-14T00:06:47.234Z,10.11
2023-05-14T00:09:36.205Z,10.06
2023-05-14T00:12:24.967Z,10.01
2023-05-14T00:15:13.307Z,9.97
2023-05-14T00:18:01.098Z,9.93
2023-05-14T00:20:49.456Z,9.89
2023-05-14T00:23:37.630Z,9.85
2023-05-14T00:26:25.777Z,9.82
2023-05-14T00:29:13.874Z,9.78
2023-05-14T00:32:01.757Z,9.73
2023-05-14T00:34:50.875Z,9.64
2023-05-14T00:37:40.475Z,9.66
2023-05-14T00:40:29.934Z,9.63
2023-05-14T00:43:20.784Z,9.60
2023-05-14T00:46:09.175Z,9.58
2023-05-14T00:49:00.001Z,9.58
2023-05-14T00:51:48.477Z,9.59
2023-05-14T00:54:37.095Z,9.59
2023-05-14T00:57:25.144Z,9.58
2023-05-14T01:00:15.187Z,9.57
2023-05-14T01:03:05.396Z,9.56
2023-05-14T01:06:26.669Z,9.54
2023-05-14T01:09:35.302Z,9.52
2023-05-14T01:12:38.631Z,9.49
2023-05-14T01:15:34.804Z,9.46
2023-05-14T01:18:24.526Z,9.42
2023-05-14T01:21:43.109Z,9.38
2023-05-14T01:24:31.185Z,9.34
2023-05-14T01:28:13.663Z,9.30
2023-05-14T01:31:14.562Z,9.27
2023-05-14T01:34:05.752Z,9.27
2023-05-14T01:36:58.972Z,9.27
2023-05-14T01:39:47.801Z,9.28
2023-05-14T01:42:36.973Z,9.29
2023-05-14T01:45:25.218Z,9.29
2023-05-14T01:48:13.314Z,9.29
2023-05-14T01:51:03.217Z,9.28
2023-05-14T01:53:51.446Z,9.27
2023-05-14T01:56:39.429Z,9.26
2023-05-14T01:59:29.952Z,9.25
2023-05-14T02:02:18.291Z,9.24
2023-05-14T02:05:09.600Z,9.22
2023-05-14T02:07:58.312Z,9.20
2023-05-14T02:10:46.866Z,9.18
2023-05-14T02:13:35.004Z,9.16
2023-05-14T02:16:23.054Z,9.17
2023-05-14T02:19:14.735Z,9.17
2023-05-14T02:22:04.002Z,9.17
2023-05-14T02:24:52.476Z,9.18
2023-05-14T02:27:40.844Z,9.18
2023-05-14T02:30:30.203Z,9.16
2023-05-14T02:33:19.065Z,9.14
2023-05-14T02:36:08.792Z,9.11
2023-05-14T02:39:01.241Z,9.08
2023-05-14T02:41:49.001Z,9.05
2023-05-14T02:44:38.297Z,9.02
2023-05-14T02:47:26.222Z,9.00
2023-05-14T02:50:14.602Z,8.99
2023-05-14T02:53:02.602Z,8.99
2023-05-14T02:55:50.834Z,8.99
2023-05-14T02:58:39.465Z,9.01
2023-05-14T03:01:27.513Z,8.99
2023-05-14T03:04:16.369Z,9.00
2023-05-14T03:07:04.678Z,9.01
2023-05-14T03:09:52.469Z,9.01
2023-05-14T03:12:41.888Z,8.99
2023-05-14T03:15:29.860Z,8.98
2023-05-14T03:18:17.952Z,9.00
2023-05-14T03:21:09.277Z,9.00
2023-05-14T03:23:57.498Z,9.08
2023-05-14T03:26:45.584Z,9.15
2023-05-14T03:29:33.826Z,9.21
2023-05-14T03:32:22.112Z,9.27
2023-05-14T03:35:11.337Z,9.33
2023-05-14T03:38:00.033Z,9.40
2023-05-14T03:40:51.426Z,9.45
2023-05-14T03:43:40.159Z,9.50
2023-05-14T03:46:29.455Z,9.57
2023-05-14T03:49:18.064Z,9.67
2023-05-14T03:52:06.701Z,9.74
2023-05-14T03:54:55.996Z,9.83
2023-05-14T03:57:46.235Z,9.92
2023-05-14T04:00:34.766Z,10.02
2023-05-14T04:03:22.955Z,10.14
2023-05-14T04:06:11.480Z,10.23
2023-05-14T04:08:59.955Z,10.32
2023-05-14T04:11:48.556Z,10.42
2023-05-14T04:14:38.781Z,10.52
2023-05-14T04:17:27.761Z,10.62
2023-05-14T04:20:15.942Z,10.73
2023-05-14T04:23:05.887Z,10.86
2023-05-14T04:25:53.825Z,11.00
2023-05-14T04:28:41.900Z,11.13
2023-05-14T04:31:31.831Z,11.26
2023-05-14T04:34:20.605Z,11.42
2023-05-14T04:37:09.114Z,11.58
2023-05-14T04:39:57.331Z,11.76
2023-05-14T04:42:45.592Z,11.95
2023-05-14T04:45:34.375Z,12.16
2023-05-14T04:48:25.365Z,12.39
2023-05-14T04:51:14.028Z,12.64
2023-05-14T04:54:02.581Z,12.93
2023-05-14T04:56:55.200Z,13.22
2023-05-14T04:59:44.250Z,13.47
2023-05-14T05:02:34.887Z,13.72
2023-05-14T05:05:31.156Z,13.98
2023-05-14T05:08:24.057Z,14.34
2023-05-14T05:11:16.452Z,14.81
2023-05-14T05:14:04.916Z,15.85
2023-05-14T05:16:52.753Z,17.31
2023-05-14T05:19:44.128Z,18.85
2023-05-14T05:22:33.306Z,20.38
2023-05-14T05:25:21.386Z,21.85
2023-05-14T05:28:09.658Z,23.18
2023-05-14T05:30:57.483Z,24.35
2023-05-14T05:33:45.798Z,25.37
2023-05-14T05:36:34.063Z,26.23
2023-05-14T05:39:22.081Z,26.93
2023-05-14T05:42:22.709Z,27.81
2023-05-14T05:45:11.479Z,28.46
2023-05-14T05:48:02.436Z,29.04
2023-05-14T05:50:51.576Z,29.58
2023-05-14T05:53:39.700Z,30.11
2023-05-14T05:56:28.494Z,30.51
2023-05-14T05:59:16.993Z,31.01
2023-05-14T06:02:06.984Z,31.35
2023-05-14T06:04:54.947Z,31.69
2023-05-14T06:07:43.212Z,32.21
2023-05-14T06:10:32.019Z,32.66
2023-05-14T06:13:20.700Z,32.84
2023-05-14T06:16:08.924Z,33.07
2023-05-14T06:18:56.947Z,33.20
2023-05-14T06:21:45.124Z,33.26
2023-05-14T06:24:33.132Z,33.42
2023-05-14T06:27:23.605Z,33.67
2023-05-14T06:30:12.793Z,34.00
2023-05-14T06:33:00.826Z,34.28
2023-05-14T06:35:49.353Z,34.48
2023-05-14T06:38:37.734Z,34.71
2023-05-14T06:41:26.319Z,34.98
2023-05-14T06:44:17.216Z,35.02
2023-05-14T06:47:08.858Z,35.14
2023-05-14T06:49:58.903Z,35.40
2023-05-14T06:52:47.698Z,35.60
2023-05-14T06:55:36.180Z,35.67
2023-05-14T06:58:24.466Z,36.00
2023-05-14T07:01:12.813Z,36.27
2023-05-14T07:04:03.032Z,36.35
2023-05-14T07:06:51.613Z,36.30
2023-05-14T07:09:42.231Z,36.33
2023-05-14T07:12:31.317Z,36.24
2023-05-14T07:15:20.202Z,36.45
2023-05-14T07:18:08.035Z,36.66
2023-05-14T07:20:57.145Z,36.80
2023-05-14T07:23:45.315Z,36.61
2023-05-14T07:26:33.764Z,36.65
2023-05-14T07:29:21.873Z,36.61
2023-05-14T07:32:09.967Z,36.60
2023-05-14T07:34:57.926Z,36.68
2023-05-14T07:37:46.816Z,36.85
2023-05-14T07:40:37.840Z,36.78
2023-05-14T07:43:27.150Z,36.85
2023-05-14T07:46:18.204Z,36.99
2023-05-14T07:49:05.960Z,37.14
2023-05-14T07:51:54.286Z,37.15
2023-05-14T07:54:44.664Z,37.09
2023-05-14T07:57:34.288Z,36.94
2023-05-14T08:00:22.726Z,36.96
2023-05-14T08:03:11.956Z,36.87
2023-05-14T08:06:00.177Z,36.97
2023-05-14T08:08:50.510Z,37.01
2023-05-14T08:11:39.352Z,36.99
2023-05-14T08:14:27.919Z,37.03
2023-05-14T08:17:16.973Z,37.18
2023-05-14T08:20:07.025Z,37.23
2023-05-14T08:22:58.752Z,37.19
2023-05-14T08:25:48.453Z,37.21
2023-05-14T08:28:36.622Z,37.24
2023-05-14T08:31:27.307Z,37.11
2023-05-14T08:34:16.628Z,36.99
2023-05-14T08:37:05.894Z,36.99
2023-05-14T08:39:54.711Z,36.95
2023-05-14T08:42:45.246Z,36.97
2023-05-14T08:45:38.967Z,37.16
2023-05-14T08:48:34.020Z,37.09
2023-05-14T08:51:22.500Z,37.11
2023-05-14T08:54:15.429Z,37.02
2023-05-14T08:57:05.099Z,36.89
2023-05-14T08:59:56.515Z,36.78
2023-05-14T09:02:46.723Z,36.91
2023-05-14T09:05:35.063Z,36.98
2023-05-14T09:08:23.862Z,37.13
2023-05-14T09:11:13.673Z,37.14
2023-05-14T09:14:01.801Z,37.12
2023-05-14T09:16:51.534Z,37.20
2023-05-14T09:19:41.572Z,37.16
2023-05-14T09:22:33.940Z,36.85
2023-05-14T09:25:28.422Z,36.74
2023-05-14T09:28:18.883Z,35.77
2023-05-14T09:31:07.344Z,35.51
2023-05-14T09:33:55.349Z,34.85
2023-05-14T09:36:43.672Z,34.56
2023-05-14T09:39:33.917Z,34.87
2023-05-14T09:42:21.701Z,35.11
2023-05-14T09:45:11.452Z,35.56
2023-05-14T09:48:01.490Z,35.97
2023-05-14T09:50:50.738Z,36.13
2023-05-14T09:53:41.599Z,36.19
2023-05-14T09:56:30.832Z,35.93
2023-05-14T09:59:19.214Z,36.04
2023-05-14T10:02:37.875Z,36.30
2023-05-14T10:05:37.489Z,36.64
2023-05-14T10:08:36.678Z,36.81
2023-05-14T10:11:31.177Z,36.93
2023-05-14T10:14:27.136Z,36.80
2023-05-14T10:17:18.626Z,36.59
2023-05-14T10:20:12.196Z,36.52
2023-05-14T10:23:03.867Z,35.96
2023-05-14T10:25:55.664Z,35.66
2023-05-14T10:28:50.022Z,35.51
2023-05-14T10:31:48.636Z,35.16
2023-05-14T10:34:38.978Z,35.23
2023-05-14T10:37:28.461Z,35.54
2023-05-14T10:40:18.695Z,35.75
2023-05-14T10:43:09.037Z,35.34
2023-05-14T10:45:58.967Z,35.47
2023-05-14T10:48:47.428Z,35.92
2023-05-14T10:51:36.955Z,36.30
2023-05-14T10:54:29.373Z,36.73
2023-05-14T10:57:23.216Z,37.14
2023-05-14T11:00:14.216Z,37.40
2023-05-14T11:03:06.090Z,37.46
2023-05-14T11:05:55.800Z,37.14
2023-05-14T11:08:46.612Z,36.82
2023-05-14T11:11:36.952Z,36.48
2023-05-14T11:14:25.201Z,36.16
2023-05-14T11:17:13.630Z,35.57
2023-05-14T11:20:02.106Z,35.02
2023-05-14T11:22:51.940Z,34.71
2023-05-14T11:25:42.079Z,34.24
2023-05-14T11:28:31.372Z,33.12
2023-05-14T11:31:23.465Z,31.93
2023-05-14T11:34:13.676Z,31.26
2023-05-14T11:37:07.621Z,30.66
2023-05-14T11:40:00.803Z,29.89
2023-05-14T11:42:53.871Z,29.12
2023-05-14T11:45:43.031Z,28.46
2023-05-14T11:48:34.632Z,27.86
2023-05-14T11:51:23.535Z,27.16
2023-05-14T11:54:14.464Z,26.72
2023-05-14T11:57:09.012Z,26.41
2023-05-14T11:59:58.064Z,26.26
2023-05-14T12:02:50.195Z,26.24
2023-05-14T12:05:40.497Z,26.30
2023-05-14T12:08:33.256Z,26.36
2023-05-14T12:11:23.138Z,26.40
2023-05-14T12:14:16.328Z,26.42
2023-05-14T12:17:09.965Z,26.39
2023-05-14T12:19:57.991Z,26.19
2023-05-14T12:22:46.299Z,25.84
2023-05-14T12:25:41.778Z,25.55
2023-05-14T12:28:36.948Z,25.42
2023-05-14T12:31:35.070Z,25.40
2023-05-14T12:34:23.100Z,25.40
2023-05-14T12:37:12.032Z,25.24
2023-05-14T12:40:00.566Z,24.98
2023-05-14T12:42:49.122Z,24.74
2023-05-14T12:45:37.333Z,24.51
2023-05-14T12:48:26.269Z,24.48
2023-05-14T12:51:15.781Z,24.54
2023-05-14T12:54:05.046Z,24.60
2023-05-14T12:56:53.068Z,24.73
2023-05-14T12:59:41.704Z,24.86
2023-05-14T13:02:30.771Z,25.00
2023-05-14T13:05:19.142Z,25.00
2023-05-14T13:08:08.325Z,24.85
2023-05-14T13:10:57.853Z,24.65
2023-05-14T13:13:46.104Z,24.40
2023-05-14T13:16:34.588Z,24.23
2023-05-14T13:19:24.850Z,24.03
2023-05-14T13:22:18.958Z,23.81
2023-05-14T13:25:08.802Z,23.64
2023-05-14T13:27:59.451Z,23.67
2023-05-14T13:31:08.003Z,23.92
2023-05-14T13:33:58.362Z,24.24
2023-05-14T13:36:47.340Z,24.39
2023-05-14T13:39:35.638Z,24.35
2023-05-14T13:42:24.108Z,24.20
2023-05-14T13:45:13.362Z,24.00
2023-05-14T13:48:01.639Z,23.91
2023-05-14T13:50:50.591Z,23.84
2023-05-14T13:53:38.868Z,23.70
2023-05-14T13:56:27.926Z,23.62
2023-05-14T13:59:16.760Z,23.60
2023-05-14T14:02:05.599Z,23.70
2023-05-14T14:04:53.796Z,23.73
2023-05-14T14:07:42.323Z,23.75
2023-05-14T14:10:31.083Z,23.83
2023-05-14T14:13:21.377Z,23.91
2023-05-14T14:16:12.714Z,23.98
2023-05-14T14:19:01.694Z,24.09
2023-05-14T14:24:38.981Z,23.93
2023-05-14T14:27:28.457Z,23.76
2023-05-14T14:30:16.132Z,23.58
2023-05-14T14:33:04.672Z,23.38
2023-05-14T14:35:53.990Z,23.22
2023-05-14T14:38:42.804Z,23.12
2023-05-14T14:41:31.130Z,23.02
2023-05-14T14:44:22.480Z,22.87
2023-05-14T14:47:10.723Z,22.65
2023-05-14T14:49:59.152Z,22.47
2023-05-14T14:52:48.256Z,22.24
2023-05-14T14:55:37.195Z,22.07
2023-05-14T14:58:25.550Z,21.87
2023-05-14T15:01:14.917Z,21.68
2023-05-14T15:04:04.003Z,21.47
2023-05-14T15:06:52.478Z,21.30
2023-05-14T15:09:42.511Z,21.16
2023-05-14T15:12:31.041Z,21.03
2023-05-14T15:15:19.638Z,20.92
2023-05-14T15:18:08.099Z,20.83
2023-05-14T15:20:57.179Z,20.72
2023-05-14T15:23:47.748Z,20.64
2023-05-14T15:26:35.994Z,20.59
2023-05-14T15:29:27.155Z,20.53
2023-05-14T15:32:15.792Z,20.43
2023-05-14T15:35:05.148Z,20.40
2023-05-14T15:37:59.748Z,20.41
2023-05-14T15:40:50.984Z,20.47
2023-05-14T15:43:42.698Z,20.55
2023-05-14T15:46:33.121Z,20.58
2023-05-14T15:49:21.707Z,20.60
2023-05-14T15:52:13.684Z,20.55
2023-05-14T15:55:01.599Z,20.53
2023-05-14T15:57:50.569Z,20.56
2023-05-14T16:00:41.212Z,20.65
2023-05-14T16:03:33.652Z,20.68
2023-05-14T16:06:25.573Z,20.73
2023-05-14T16:09:13.349Z,20.75
2023-05-14T16:12:03.121Z,20.76
2023-05-14T16:14:52.299Z,20.74
2023-05-14T16:17:42.678Z,20.68
2023-05-14T16:20:31.234Z,20.58
2023-05-14T16:23:21.279Z,20.51
2023-05-14T16:26:09.307Z,20.42
2023-05-14T16:28:58.472Z,20.32
2023-05-14T16:31:52.232Z,20.21
2023-05-14T16:34:42.086Z,20.10
2023-05-14T16:37:32.116Z,20.00
2023-05-14T16:40:22.355Z,19.90
2023-05-14T16:43:11.572Z,19.79
2023-05-14T16:46:02.366Z,19.67
2023-05-14T16:48:52.671Z,19.56
2023-05-14T16:51:44.362Z,19.49
2023-05-14T16:54:34.734Z,19.40
2023-05-14T16:57:25.718Z,19.35
2023-05-14T17:00:15.949Z,19.32
2023-05-14T17:03:04.901Z,19.29
2023-05-14T17:05:53.951Z,19.27
2023-05-14T17:08:42.062Z,19.21
2023-05-14T17:11:30.230Z,19.16
2023-05-14T17:14:18.658Z,19.10
2023-05-14T17:17:07.523Z,19.04
2023-05-14T17:19:56.766Z,18.98
2023-05-14T17:22:45.223Z,18.92
2023-05-14T17:25:33.768Z,18.85
2023-05-14T17:28:27.089Z,18.77
2023-05-14T17:31:18.755Z,18.70
2023-05-14T17:34:07.635Z,18.64
2023-05-14T17:36:56.223Z,18.59
2023-05-14T17:39:44.342Z,18.52
2023-05-14T17:42:32.590Z,18.46
2023-05-14T17:45:21.586Z,18.41
2023-05-14T17:48:12.503Z,18.36
2023-05-14T17:51:01.004Z,18.30
2023-05-14T17:53:49.666Z,18.24
2023-05-14T17:56:38.037Z,18.14
2023-05-14T17:59:26.620Z,18.05
2023-05-14T18:02:16.702Z,17.95
2023-05-14T18:05:05.604Z,17.86
2023-05-14T18:07:55.291Z,17.77
2023-05-14T18:10:44.119Z,17.68
2023-05-14T18:13:35.098Z,17.60
2023-05-14T18:16:24.131Z,17.51
2023-05-14T18:19:15.197Z,17.43
2023-05-14T18:22:03.656Z,17.36
2023-05-14T18:24:52.865Z,17.31
2023-05-14T18:27:44.633Z,17.26
2023-05-14T18:30:33.423Z,17.19
2023-05-14T18:33:24.138Z,17.12
2023-05-14T18:36:13.457Z,17.05
2023-05-14T18:39:05.795Z,16.98
2023-05-14T18:41:56.683Z,16.90
2023-05-14T18:44:44.868Z,16.81
2023-05-14T18:47:34.749Z,16.74
2023-05-14T18:50:27.132Z,16.66
2023-05-14T18:53:15.347Z,16.57
2023-05-14T18:56:05.200Z,16.46
2023-05-14T18:58:55.051Z,16.35
2023-05-14T19:01:43.581Z,16.24
2023-05-14T19:04:33.552Z,16.14
2023-05-14T19:07:27.950Z,16.06
2023-05-14T19:10:18.953Z,15.94
2023-05-14T19:13:07.087Z,15.84
2023-05-14T19:15:56.103Z,15.77
2023-05-14T19:18:44.113Z,15.70
2023-05-14T19:21:32.873Z,15.63
2023-05-14T19:24:20.680Z,15.56
2023-05-14T19:27:19.414Z,15.49
2023-05-14T19:30:09.425Z,15.44
2023-05-14T19:33:04.595Z,15.40
2023-05-14T19:35:56.281Z,15.36
2023-05-14T19:38:44.830Z,15.31
2023-05-14T19:41:34.979Z,15.26
2023-05-14T19:44:24.480Z,15.21
2023-05-14T19:47:14.137Z,15.16
2023-05-14T19:50:04.404Z,15.11
2023-05-14T19:52:52.688Z,15.07
2023-05-14T19:55:44.338Z,15.00
2023-05-14T19:58:34.847Z,14.95
2023-05-14T20:01:23.025Z,14.88
2023-05-14T20:04:11.561Z,14.81
2023-05-14T20:07:01.303Z,14.76
2023-05-14T20:09:49.561Z,14.72
2023-05-14T20:12:37.997Z,14.68
2023-05-14T20:15:26.857Z,14.63
2023-05-14T20:18:15.283Z,14.57
2023-05-14T20:21:05.712Z,14.51
2023-05-14T20:23:54.182Z,14.45
2023-05-14T20:26:44.104Z,14.42
2023-05-14T20:29:35.073Z,14.38
2023-05-14T20:32:25.167Z,14.34
2023-05-14T20:35:14.747Z,14.31
2023-05-14T20:38:04.563Z,14.29
2023-05-14T20:40:54.058Z,14.28
2023-05-14T20:43:44.582Z,14.27
2023-05-14T20:46:33.169Z,14.26
2023-05-14T20:49:21.389Z,14.24
2023-05-14T20:52:10.315Z,14.22
2023-05-14T20:55:00.755Z,14.19
2023-05-14T20:57:49.932Z,14.15
2023-05-14T21:00:39.317Z,14.10
2023-05-14T21:03:27.555Z,14.05
2023-05-14T21:06:16.420Z,14.00
2023-05-14T21:09:04.622Z,13.92
2023-05-14T21:11:54.143Z,13.86
2023-05-14T21:14:43.365Z,13.80
2023-05-14T21:17:34.652Z,13.76
2023-05-14T21:20:25.072Z,13.71
2023-05-14T21:23:14.816Z,13.67
2023-05-14T21:26:03.432Z,13.61
2023-05-14T21:28:53.459Z,13.59
2023-05-14T21:31:41.386Z,13.56
2023-05-14T21:34:31.234Z,13.52
2023-05-14T21:37:21.945Z,13.49
2023-05-14T21:40:12.585Z,13.47
2023-05-14T21:43:06.153Z,13.44
2023-05-14T21:45:54.508Z,13.41
2023-05-14T21:48:42.604Z,13.41
2023-05-14T21:51:32.354Z,13.39
2023-05-14T21:54:21.173Z,13.37
2023-05-14T21:57:09.519Z,13.36
2023-05-14T21:59:58.289Z,13.35
2023-05-14T22:02:47.235Z,13.33
2023-05-14T22:05:36.963Z,13.32
2023-05-14T22:08:24.948Z,13.29
2023-05-14T22:11:13.781Z,13.28
2023-05-14T22:14:04.407Z,13.29
2023-05-14T22:16:55.286Z,13.28
2023-05-14T22:19:43.781Z,13.27
2023-05-14T22:22:32.379Z,13.26
2023-05-14T22:25:20.351Z,13.23
2023-05-14T22:28:08.406Z,13.21
2023-05-14T22:30:59.873Z,13.19
2023-05-14T22:33:47.689Z,13.18
2023-05-14T22:36:35.794Z,13.16
2023-05-14T22:39:24.005Z,13.14
2023-05-14T22:42:12.242Z,13.11
2023-05-14T22:45:00.297Z,13.08
2023-05-14T22:47:49.207Z,13.04
2023-05-14T22:50:37.346Z,13.01
2023-05-14T22:53:25.676Z,12.99
2023-05-14T22:56:15.541Z,12.94
2023-05-14T22:59:04.307Z,12.91
2023-05-14T23:01:52.174Z,12.87
2023-05-14T23:04:40.625Z,12.84
2023-05-14T23:07:28.784Z,12.82
2023-05-14T23:10:17.992Z,12.81
2023-05-14T23:13:06.851Z,12.80
2023-05-14T23:15:55.881Z,12.81
2023-05-14T23:18:45.086Z,12.83
2023-05-14T23:21:33.390Z,12.84
2023-05-14T23:24:22.405Z,12.84
2023-05-14T23:27:11.818Z,12.85
2023-05-14T23:29:59.924Z,12.84
2023-05-14T23:32:49.810Z,12.82
2023-05-14T23:35:39.876Z,12.81
2023-05-14T23:38:27.647Z,12.78
2023-05-14T23:41:15.814Z,12.77
2023-05-14T23:44:04.032Z,12.73
2023-05-14T23:46:53.721Z,12.71
2023-05-14T23:49:41.969Z,12.70
2023-05-14T23:52:30.066Z,12.68
2023-05-14T23:55:19.232Z,12.68
2023-05-14T23:58:07.633Z,12.69
